createdAt,value
2018-01-07T00:00:29.164Z,49.5
2018-01-07T00:01:30.783Z,49.3
2018-01-07T00:02:32.678Z,49.5
2018-01-07T00:03:33.994Z,49.5
2018-01-07T00:04:35.592Z,49.3
2018-01-07T00:05:37.488Z,49.4
2018-01-07T00:06:39.381Z,49.9
2018-01-07T00:07:41.278Z,49.3
2018-01-07T00:08:42.895Z,49.4
2018-01-07T00:09:44.237Z,49.4
2018-01-07T00:10:45.559Z,49.6
2018-01-07T00:11:46.901Z,50
2018-01-07T00:12:48.521Z,49.9
2018-01-07T00:13:49.563Z,49.4
2018-01-07T00:14:50.903Z,49.4
2018-01-07T00:15:52.500Z,49.4
2018-01-07T00:16:53.272Z,49.6
2018-01-07T00:17:54.890Z,49.4
2018-01-07T00:18:56.507Z,49.3
2018-01-07T00:19:58.127Z,49.8
2018-01-07T00:21:00.028Z,49.6
2018-01-07T00:22:01.343Z,49.5
2018-01-07T00:23:02.941Z,49.5
2018-01-07T00:24:04.280Z,49.5
2018-01-07T00:25:06.175Z,49.7
2018-01-07T00:26:08.071Z,49.5
2018-01-07T00:27:09.681Z,49.3
2018-01-07T00:28:11.012Z,49.2
2018-01-07T00:29:12.632Z,49.9
2018-01-07T00:30:14.525Z,49.3
2018-01-07T00:31:16.421Z,49.4
2018-01-07T00:32:18.315Z,49.3
2018-01-07T00:33:19.914Z,49.4
2018-01-07T00:34:21.539Z,49.7
2018-01-07T00:35:23.434Z,49.6
2018-01-07T00:36:25.330Z,49.4
2018-01-07T00:37:27.223Z,49.4
2018-01-07T00:38:28.839Z,49.4
2018-01-07T00:39:30.470Z,49.3
2018-01-07T00:40:32.059Z,49.3
2018-01-07T00:41:33.958Z,49.3
2018-01-07T00:42:34.994Z,49.3
2018-01-07T00:43:36.374Z,49.4
2018-01-07T00:44:38.009Z,49.4
2018-01-07T00:45:39.900Z,49.6
2018-01-07T00:46:41.518Z,49.4
2018-01-07T00:47:43.418Z,49.3
2018-01-07T00:48:45.013Z,49.3
2018-01-07T00:49:46.908Z,49.3
2018-01-07T00:50:48.803Z,49.8
2018-01-07T00:51:50.698Z,49.3
2018-01-07T00:52:52.318Z,49.4
2018-01-07T00:53:54.212Z,49.3
2018-01-07T00:54:55.832Z,49.6
2018-01-07T00:55:57.727Z,49.5
2018-01-07T00:56:58.772Z,49.3
2018-01-07T00:58:00.385Z,49.5
2018-01-07T00:59:01.981Z,49.6
2018-01-07T01:00:03.578Z,49.3
2018-01-07T01:01:05.175Z,49.4
2018-01-07T01:02:06.217Z,49.2
2018-01-07T01:03:07.553Z,49.3
2018-01-07T01:04:09.449Z,49.2
2018-01-07T01:05:10.511Z,49.3
2018-01-07T01:06:12.440Z,49.3
2018-01-07T01:07:14.337Z,49.3
2018-01-07T01:08:16.230Z,49.3
2018-01-07T01:09:17.572Z,49.4
2018-01-07T01:10:18.915Z,49.5
2018-01-07T01:11:20.811Z,49.4
2018-01-07T01:12:22.410Z,49.4
2018-01-07T01:13:24.025Z,49.5
2018-01-07T01:14:25.365Z,49.3
2018-01-07T01:15:26.707Z,49.4
2018-01-07T01:16:28.343Z,49.4
2018-01-07T01:17:29.960Z,49.5
2018-01-07T01:18:31.855Z,49.5
2018-01-07T01:19:33.176Z,49.3
2018-01-07T01:20:34.493Z,49.4
2018-01-07T01:21:35.813Z,49.5
2018-01-07T01:22:37.430Z,49.7
2018-01-07T01:23:39.036Z,49.5
2018-01-07T01:24:40.700Z,49.4
2018-01-07T01:25:42.596Z,49.4
2018-01-07T01:26:43.914Z,49.5
2018-01-07T01:27:45.813Z,49.4
2018-01-07T01:28:47.706Z,49.3
2018-01-07T01:29:49.022Z,49.5
2018-01-07T01:30:50.919Z,49.4
2018-01-07T01:31:52.269Z,49.5
2018-01-07T01:32:53.882Z,49.7
2018-01-07T01:33:55.774Z,49.5
2018-01-07T01:34:57.095Z,49.6
2018-01-07T01:35:58.712Z,49.4
2018-01-07T01:37:00.330Z,49.5
2018-01-07T01:38:02.227Z,49.4
2018-01-07T01:39:03.845Z,49.4
2018-01-07T01:40:05.744Z,49.4
2018-01-07T01:41:07.364Z,49.7
2018-01-07T01:42:09.256Z,49.6
2018-01-07T01:43:10.575Z,49.6
2018-01-07T01:44:12.192Z,49.5
2018-01-07T01:45:13.510Z,49.2
2018-01-07T01:46:15.409Z,49.5
2018-01-07T01:47:17.028Z,49.5
2018-01-07T01:48:18.625Z,49.7
2018-01-07T01:49:19.667Z,49.1
2018-01-07T01:50:21.577Z,49.2
2018-01-07T01:51:23.471Z,49.4
2018-01-07T01:52:25.087Z,49.5
2018-01-07T01:53:26.983Z,49.6
2018-01-07T01:54:28.886Z,49.1
2018-01-07T01:55:30.220Z,49.1
2018-01-07T01:56:31.573Z,49.3
2018-01-07T01:57:32.900Z,49.3
2018-01-07T01:58:34.517Z,49.3
2018-01-07T01:59:35.856Z,49.3
2018-01-07T02:00:37.753Z,49.3
2018-01-07T02:01:39.676Z,49.5
2018-01-07T02:02:41.295Z,49.1
2018-01-07T02:03:43.190Z,49.2
2018-01-07T02:04:44.535Z,49.2
2018-01-07T02:05:45.580Z,49.2
2018-01-07T02:06:47.474Z,49.3
2018-01-07T02:07:49.371Z,49.2
2018-01-07T02:08:51.269Z,49.2
2018-01-07T02:09:53.164Z,49.3
2018-01-07T02:10:55.060Z,49.2
2018-01-07T02:11:56.954Z,49
2018-01-07T02:12:58.851Z,49.3
2018-01-07T02:14:00.783Z,49.5
2018-01-07T02:15:02.686Z,49.4
2018-01-07T02:16:04.310Z,49.3
2018-01-07T02:17:06.208Z,49.2
2018-01-07T02:18:07.824Z,49
2018-01-07T02:19:09.720Z,49.2
2018-01-07T02:20:11.616Z,49.3
2018-01-07T02:21:13.521Z,49.2
2018-01-07T02:22:15.404Z,49.3
2018-01-07T02:23:17.033Z,49
2018-01-07T02:24:18.652Z,49.2
2018-01-07T02:25:20.271Z,49.2
2018-01-07T02:26:21.892Z,49.3
2018-01-07T02:27:23.234Z,49.2
2018-01-07T02:28:25.127Z,49.1
2018-01-07T02:29:26.747Z,49
2018-01-07T02:30:28.642Z,49
2018-01-07T02:31:30.534Z,49
2018-01-07T02:32:31.876Z,49.3
2018-01-07T02:33:33.201Z,49.5
2018-01-07T02:34:34.523Z,49.1
2018-01-07T02:35:35.588Z,49
2018-01-07T02:36:36.929Z,49.2
2018-01-07T02:37:38.552Z,49
2018-01-07T02:38:40.166Z,49.3
2018-01-07T02:39:41.489Z,49
2018-01-07T02:40:43.087Z,49.4
2018-01-07T02:41:44.985Z,48.9
2018-01-07T02:42:46.881Z,48.9
2018-01-07T02:43:48.218Z,49.2
2018-01-07T02:44:49.565Z,48.9
2018-01-07T02:45:51.185Z,49
2018-01-07T02:46:52.803Z,49.1
2018-01-07T02:47:54.421Z,49
2018-01-07T02:48:56.321Z,49.1
2018-01-07T02:49:57.933Z,48.9
2018-01-07T02:50:59.829Z,48.9
2018-01-07T02:52:01.723Z,49
2018-01-07T02:53:03.344Z,48.9
2018-01-07T02:54:04.960Z,49
2018-01-07T02:55:06.854Z,49
2018-01-07T02:56:08.174Z,49
2018-01-07T02:57:10.072Z,48.9
2018-01-07T02:58:11.696Z,48.9
2018-01-07T02:59:13.587Z,48.9
2018-01-07T03:00:15.483Z,48.9
2018-01-07T03:01:17.386Z,48.9
2018-01-07T03:02:19.038Z,48.9
2018-01-07T03:03:20.935Z,49
2018-01-07T03:04:22.255Z,49
2018-01-07T03:05:23.595Z,48.9
2018-01-07T03:06:25.494Z,49.1
2018-01-07T03:07:27.109Z,48.9
2018-01-07T03:08:28.729Z,48.9
2018-01-07T03:09:29.772Z,48.9
2018-01-07T03:10:31.091Z,48.9
2018-01-07T03:11:32.986Z,48.9
2018-01-07T03:12:34.584Z,49
2018-01-07T03:13:35.924Z,48.9
2018-01-07T03:14:37.544Z,48.9
2018-01-07T03:15:39.161Z,49
2018-01-07T03:16:40.778Z,48.9
2018-01-07T03:17:42.395Z,49
2018-01-07T03:18:44.290Z,49
2018-01-07T03:19:46.191Z,48.9
2018-01-07T03:20:48.088Z,49.1
2018-01-07T03:21:49.985Z,48.8
2018-01-07T03:22:51.304Z,48.8
2018-01-07T03:23:52.921Z,48.9
2018-01-07T03:24:54.238Z,48.8
2018-01-07T03:25:56.134Z,48.9
2018-01-07T03:26:57.764Z,48.9
2018-01-07T03:27:58.822Z,49
2018-01-07T03:29:00.720Z,49
2018-01-07T03:30:02.629Z,49
2018-01-07T03:31:04.253Z,48.9
2018-01-07T03:32:06.143Z,49
2018-01-07T03:33:07.760Z,49
2018-01-07T03:34:09.082Z,49
2018-01-07T03:35:10.974Z,49.2
2018-01-07T03:36:12.871Z,49.2
2018-01-07T03:37:14.489Z,48.9
2018-01-07T03:38:16.106Z,48.9
2018-01-07T03:39:18.004Z,49
2018-01-07T03:40:19.617Z,49.1
2018-01-07T03:41:21.214Z,49.2
2018-01-07T03:42:22.831Z,48.8
2018-01-07T03:43:24.732Z,49.1
2018-01-07T03:44:26.350Z,49
2018-01-07T03:45:27.412Z,49.1
2018-01-07T03:46:29.032Z,48.8
2018-01-07T03:47:30.929Z,48.8
2018-01-07T03:48:32.825Z,49.1
2018-01-07T03:49:34.166Z,49
2018-01-07T03:50:35.763Z,49
2018-01-07T03:51:37.387Z,49.3
2018-01-07T03:52:39.276Z,48.7
2018-01-07T03:53:40.929Z,48.7
2018-01-07T03:54:42.825Z,48.8
2018-01-07T03:55:44.719Z,49.1
2018-01-07T03:56:46.085Z,49
2018-01-07T03:57:47.429Z,49
2018-01-07T03:58:49.048Z,49
2018-01-07T03:59:50.674Z,48.9
2018-01-07T04:00:52.570Z,49.3
2018-01-07T04:01:54.467Z,49.3
2018-01-07T04:02:56.084Z,48.9
2018-01-07T04:03:57.981Z,49
2018-01-07T04:04:59.602Z,49
2018-01-07T04:06:01.226Z,49.1
2018-01-07T04:07:02.838Z,49
2018-01-07T04:08:04.435Z,49
2018-01-07T04:09:06.054Z,49
2018-01-07T04:10:07.952Z,49
2018-01-07T04:11:09.848Z,49.3
2018-01-07T04:12:11.188Z,49.3
2018-01-07T04:13:12.808Z,49.3
2018-01-07T04:14:14.751Z,49.2
2018-01-07T04:15:16.649Z,48.9
2018-01-07T04:16:18.266Z,49
2018-01-07T04:17:19.907Z,49.3
2018-01-07T04:18:21.503Z,48.8
2018-01-07T04:19:23.126Z,48.9
2018-01-07T04:20:24.722Z,49
2018-01-07T04:21:26.341Z,49
2018-01-07T04:22:27.662Z,49
2018-01-07T04:23:28.997Z,49.1
2018-01-07T04:24:30.613Z,49.3
2018-01-07T04:25:32.233Z,49.1
2018-01-07T04:26:33.554Z,49
2018-01-07T04:27:35.152Z,49.3
2018-01-07T04:28:36.769Z,49
2018-01-07T04:29:38.386Z,49
2018-01-07T04:30:39.728Z,49
2018-01-07T04:31:41.657Z,49.3
2018-01-07T04:32:43.551Z,49
2018-01-07T04:33:45.169Z,49.2
2018-01-07T04:34:46.497Z,49
2018-01-07T04:35:48.120Z,49.2
2018-01-07T04:36:50.015Z,49.1
2018-01-07T04:37:51.614Z,49
2018-01-07T04:38:53.506Z,49
2018-01-07T04:39:55.102Z,48.9
2018-01-07T04:40:56.997Z,49
2018-01-07T04:41:58.618Z,48.4
2018-01-07T04:43:00.513Z,48.5
2018-01-07T04:44:02.410Z,48.5
2018-01-07T04:45:04.305Z,48.9
2018-01-07T04:46:05.352Z,49.3
2018-01-07T04:47:07.249Z,48.5
2018-01-07T04:48:08.868Z,48.5
2018-01-07T04:49:10.487Z,48.5
2018-01-07T04:50:11.564Z,48.5
2018-01-07T04:51:12.901Z,48.6
2018-01-07T04:52:14.554Z,48.9
2018-01-07T04:53:16.189Z,48.6
2018-01-07T04:54:17.783Z,48.7
2018-01-07T04:55:19.378Z,48.5
2018-01-07T04:56:20.732Z,48.8
2018-01-07T04:57:22.372Z,48.7
2018-01-07T04:58:23.712Z,48.8
2018-01-07T04:59:25.333Z,48.8
2018-01-07T05:00:26.952Z,48.9
2018-01-07T05:01:28.270Z,48.8
2018-01-07T05:02:29.886Z,48.8
2018-01-07T05:03:31.205Z,48.6
2018-01-07T05:04:32.829Z,48.6
2018-01-07T05:05:34.166Z,48.6
2018-01-07T05:06:35.767Z,48.6
2018-01-07T05:07:37.386Z,48.6
2018-01-07T05:08:39.284Z,48.8
2018-01-07T05:09:40.926Z,48.6
2018-01-07T05:10:42.527Z,48.6
2018-01-07T05:11:43.846Z,48.5
2018-01-07T05:12:45.747Z,48.6
2018-01-07T05:13:47.089Z,48.8
2018-01-07T05:14:48.713Z,48.8
2018-01-07T05:15:50.629Z,48.6
2018-01-07T05:16:52.525Z,48.7
2018-01-07T05:17:54.151Z,48.7
2018-01-07T05:18:56.045Z,48.5
2018-01-07T05:19:57.370Z,48.7
2018-01-07T05:20:58.967Z,48.5
2018-01-07T05:22:00.305Z,48.7
2018-01-07T05:23:01.926Z,48.5
2018-01-07T05:24:03.821Z,48.8
2018-01-07T05:25:05.144Z,48.5
2018-01-07T05:26:06.762Z,48.8
2018-01-07T05:27:08.658Z,48.4
2018-01-07T05:28:10.274Z,49.3
2018-01-07T05:29:11.617Z,48.5
2018-01-07T05:30:13.514Z,48.4
2018-01-07T05:31:15.130Z,48.3
2018-01-07T05:32:17.028Z,48.5
2018-01-07T05:33:18.926Z,49.1
2018-01-07T05:34:20.820Z,48.5
2018-01-07T05:35:22.714Z,48.9
2018-01-07T05:36:24.619Z,48.5
2018-01-07T05:37:26.517Z,48.7
2018-01-07T05:38:28.414Z,48.8
2018-01-07T05:39:30.030Z,48.5
2018-01-07T05:40:31.683Z,48.6
2018-01-07T05:41:32.728Z,48.9
2018-01-07T05:42:34.068Z,48.6
2018-01-07T05:43:35.663Z,48.6
2018-01-07T05:44:37.599Z,48.9
2018-01-07T05:45:39.497Z,48.6
2018-01-07T05:46:41.392Z,48.4
2018-01-07T05:47:43.292Z,48.9
2018-01-07T05:48:44.654Z,48.6
2018-01-07T05:49:46.275Z,48.4
2018-01-07T05:50:48.172Z,48.6
2018-01-07T05:51:49.487Z,48.4
2018-01-07T05:52:51.113Z,48.5
2018-01-07T05:53:53.011Z,48.6
2018-01-07T05:54:54.905Z,48.4
2018-01-07T05:55:56.526Z,48.4
2018-01-07T05:56:58.421Z,48.5
2018-01-07T05:58:00.322Z,48.4
2018-01-07T05:59:02.217Z,48.6
2018-01-07T06:00:04.110Z,48.4
2018-01-07T06:01:05.729Z,48.5
2018-01-07T06:02:07.346Z,48.5
2018-01-07T06:03:09.244Z,48.7
2018-01-07T06:04:10.863Z,48.4
2018-01-07T06:05:12.478Z,48.5
2018-01-07T06:06:13.797Z,48.5
2018-01-07T06:07:15.119Z,48.5
2018-01-07T06:08:16.736Z,48.4
2018-01-07T06:09:18.635Z,48.4
2018-01-07T06:10:20.268Z,48.5
2018-01-07T06:11:21.892Z,48.5
2018-01-07T06:12:23.492Z,49.1
2018-01-07T06:13:25.089Z,48.5
2018-01-07T06:14:26.430Z,48.5
2018-01-07T06:15:28.327Z,49.1
2018-01-07T06:16:30.226Z,48.5
2018-01-07T06:17:31.838Z,48.5
2018-01-07T06:18:33.179Z,48.5
2018-01-07T06:19:34.797Z,48.5
2018-01-07T06:20:36.415Z,48.5
2018-01-07T06:21:38.310Z,48.4
2018-01-07T06:22:39.935Z,48.8
2018-01-07T06:23:41.555Z,48.5
2018-01-07T06:24:42.876Z,48.6
2018-01-07T06:25:44.498Z,48.6
2018-01-07T06:26:46.139Z,48.6
2018-01-07T06:27:48.043Z,48.6
2018-01-07T06:28:49.935Z,48.6
2018-01-07T06:29:51.834Z,48.5
2018-01-07T06:30:53.153Z,48.5
2018-01-07T06:31:54.471Z,48.6
2018-01-07T06:32:56.088Z,48.5
2018-01-07T06:33:57.707Z,48.5
2018-01-07T06:34:58.749Z,48.5
2018-01-07T06:36:00.092Z,48.5
2018-01-07T06:37:01.988Z,48.4
2018-01-07T06:38:03.887Z,48.6
2018-01-07T06:39:05.503Z,48.4
2018-01-07T06:40:07.123Z,48.4
2018-01-07T06:41:08.748Z,48.5
2018-01-07T06:42:10.362Z,48.9
2018-01-07T06:43:12.267Z,48.6
2018-01-07T06:44:13.907Z,49
2018-01-07T06:45:15.505Z,48.5
2018-01-07T06:46:17.125Z,48.6
2018-01-07T06:47:18.740Z,48.4
2018-01-07T06:48:20.337Z,48.5
2018-01-07T06:49:22.235Z,48.6
2018-01-07T06:50:24.128Z,48.5
2018-01-07T06:51:25.470Z,48.6
2018-01-07T06:52:27.367Z,48.6
2018-01-07T06:53:28.985Z,48.6
2018-01-07T06:54:30.583Z,48.6
2018-01-07T06:55:32.205Z,48.6
2018-01-07T06:56:34.101Z,48.6
2018-01-07T06:57:35.718Z,49.1
2018-01-07T06:58:37.059Z,48.4
2018-01-07T06:59:38.957Z,48.6
2018-01-07T07:00:40.575Z,48.4
2018-01-07T07:01:41.618Z,48.5
2018-01-07T07:02:42.940Z,48.6
2018-01-07T07:03:44.834Z,48.5
2018-01-07T07:04:46.760Z,48.7
2018-01-07T07:05:48.102Z,48.5
2018-01-07T07:06:49.700Z,48.5
2018-01-07T07:07:51.046Z,48.8
2018-01-07T07:08:52.371Z,48.4
2018-01-07T07:09:53.691Z,48.9
2018-01-07T07:10:55.308Z,48.5
2018-01-07T07:11:57.203Z,48.5
2018-01-07T07:12:59.098Z,48.6
2018-01-07T07:14:00.718Z,49
2018-01-07T07:15:02.337Z,48.3
2018-01-07T07:16:03.936Z,48.3
2018-01-07T07:17:05.554Z,48.5
2018-01-07T07:18:07.176Z,48.5
2018-01-07T07:19:08.841Z,48.3
2018-01-07T07:20:10.460Z,48.5
2018-01-07T07:21:12.078Z,48.3
2018-01-07T07:22:13.971Z,48.5
2018-01-07T07:23:15.867Z,48.6
2018-01-07T07:24:17.762Z,48.4
2018-01-07T07:25:19.664Z,48.6
2018-01-07T07:26:20.982Z,48.6
2018-01-07T07:27:22.599Z,48.6
2018-01-07T07:28:24.221Z,48.6
2018-01-07T07:29:25.837Z,48.7
2018-01-07T07:30:27.459Z,48.6
2018-01-07T07:31:29.356Z,48.7
2018-01-07T07:32:30.676Z,48.1
2018-01-07T07:33:31.998Z,48.2
2018-01-07T07:34:33.428Z,48.6
2018-01-07T07:35:35.329Z,48.6
2018-01-07T07:36:36.926Z,48.8
2018-01-07T07:37:38.545Z,48.6
2018-01-07T07:38:40.440Z,48.7
2018-01-07T07:39:42.338Z,48.1
2018-01-07T07:40:43.957Z,48.3
2018-01-07T07:41:45.855Z,48.6
2018-01-07T07:42:47.197Z,48.5
2018-01-07T07:43:48.796Z,48.3
2018-01-07T07:44:50.414Z,48.1
2018-01-07T07:45:52.312Z,48.2
2018-01-07T07:46:53.933Z,48.2
2018-01-07T07:47:55.829Z,48.6
2018-01-07T07:48:57.445Z,48.2
2018-01-07T07:49:59.445Z,48.2
2018-01-07T07:51:01.065Z,48.3
2018-01-07T07:52:02.970Z,48.6
2018-01-07T07:53:04.314Z,48.3
2018-01-07T07:54:06.211Z,48.5
2018-01-07T07:55:07.372Z,48.4
2018-01-07T07:56:08.997Z,48.4
2018-01-07T07:57:10.596Z,48.3
2018-01-07T07:58:11.938Z,48.4
2018-01-07T07:59:13.535Z,48.5
2018-01-07T08:00:15.433Z,48.3
2018-01-07T08:01:17.333Z,48.5
2018-01-07T08:02:18.951Z,48.7
2018-01-07T08:03:20.849Z,48.1
2018-01-07T08:04:22.750Z,48.2
2018-01-07T08:05:24.367Z,48.1
2018-01-07T08:06:25.966Z,48.2
2018-01-07T08:07:26.732Z,48.1
2018-01-07T08:08:28.630Z,48.1
2018-01-07T08:09:30.532Z,48.7
2018-01-07T08:10:31.858Z,48.5
2018-01-07T08:11:33.469Z,48.1
2018-01-07T08:12:35.093Z,48.7
2018-01-07T08:13:36.694Z,48.5
2018-01-07T08:14:38.312Z,48.2
2018-01-07T08:15:39.935Z,48.3
2018-01-07T08:16:41.836Z,48.7
2018-01-07T08:17:43.154Z,48.7
2018-01-07T08:18:44.474Z,48.2
2018-01-07T08:19:46.092Z,48.6
2018-01-07T08:20:47.991Z,48.5
2018-01-07T08:21:49.885Z,48.5
2018-01-07T08:22:51.508Z,48.5
2018-01-07T08:23:53.129Z,48.3
2018-01-07T08:24:55.026Z,48.2
2018-01-07T08:25:56.921Z,48.2
2018-01-07T08:26:57.962Z,48.2
2018-01-07T08:27:59.286Z,48.4
2018-01-07T08:29:00.904Z,48.2
2018-01-07T08:30:02.505Z,48.2
2018-01-07T08:31:04.096Z,47.9
2018-01-07T08:32:05.696Z,47.9
2018-01-07T08:33:07.314Z,48.2
2018-01-07T08:34:08.357Z,48
2018-01-07T08:35:09.960Z,47.8
2018-01-07T08:36:11.858Z,47.9
2018-01-07T08:37:13.455Z,48
2018-01-07T08:38:15.077Z,48.1
2018-01-07T08:39:16.695Z,47.7
2018-01-07T08:40:18.012Z,47.6
2018-01-07T08:41:19.355Z,48.3
2018-01-07T08:42:21.255Z,47.6
2018-01-07T08:43:22.883Z,48.3
2018-01-07T08:44:24.223Z,48.1
2018-01-07T08:45:25.545Z,48.1
2018-01-07T08:46:27.143Z,48.2
2018-01-07T08:47:28.743Z,48
2018-01-07T08:48:30.362Z,48
2018-01-07T08:49:31.978Z,48.3
2018-01-07T08:50:33.583Z,48.1
2018-01-07T08:51:35.474Z,48.2
2018-01-07T08:52:37.077Z,48
2018-01-07T08:53:38.692Z,48
2018-01-07T08:54:40.591Z,48.2
2018-01-07T08:55:42.489Z,48
2018-01-07T08:56:44.111Z,47.6
2018-01-07T08:57:46.007Z,48.2
2018-01-07T08:58:47.349Z,48.2
2018-01-07T08:59:48.690Z,48.1
2018-01-07T09:00:50.292Z,48.1
2018-01-07T09:01:51.632Z,47.9
2018-01-07T09:02:53.253Z,48
2018-01-07T09:03:55.157Z,48.2
2018-01-07T09:04:57.060Z,48.5
2018-01-07T09:05:58.672Z,47.7
2018-01-07T09:07:00.562Z,47.8
2018-01-07T09:08:02.166Z,47.7
2018-01-07T09:09:03.787Z,48.3
2018-01-07T09:10:05.686Z,47.7
2018-01-07T09:11:07.579Z,47.9
2018-01-07T09:12:09.202Z,47.8
2018-01-07T09:13:10.814Z,47.6
2018-01-07T09:14:12.136Z,47.7
2018-01-07T09:15:13.750Z,48.1
2018-01-07T09:16:15.649Z,47.9
2018-01-07T09:17:17.267Z,48
2018-01-07T09:18:19.165Z,48.2
2018-01-07T09:19:20.491Z,47.8
2018-01-07T09:20:21.810Z,48
2018-01-07T09:21:22.859Z,47.6
2018-01-07T09:22:24.750Z,48.1
2018-01-07T09:23:26.647Z,47.7
2018-01-07T09:24:28.547Z,48.4
2018-01-07T09:25:30.163Z,48.3
2018-01-07T09:26:32.056Z,48.4
2018-01-07T09:27:33.423Z,47.9
2018-01-07T09:28:35.322Z,48.3
2018-01-07T09:29:36.666Z,48.3
2018-01-07T09:30:38.282Z,48.3
2018-01-07T09:31:39.900Z,48.3
2018-01-07T09:32:41.794Z,47.7
2018-01-07T09:33:43.692Z,48.3
2018-01-07T09:34:45.591Z,47.7
2018-01-07T09:35:47.488Z,47.7
2018-01-07T09:36:49.385Z,48.2
2018-01-07T09:37:50.713Z,47.7
2018-01-07T09:38:52.050Z,47.7
2018-01-07T09:39:53.669Z,48.3
2018-01-07T09:40:55.566Z,47.7
2018-01-07T09:41:57.465Z,47.6
2018-01-07T09:42:59.460Z,48.4
2018-01-07T09:44:01.080Z,48.4
2018-01-07T09:45:02.702Z,48.1
2018-01-07T09:46:04.599Z,47.7
2018-01-07T09:47:06.214Z,48.4
2018-01-07T09:48:08.150Z,48.3
2018-01-07T09:49:10.049Z,48.4
2018-01-07T09:50:11.950Z,48.1
2018-01-07T09:51:13.548Z,48.4
2018-01-07T09:52:15.456Z,47.6
2018-01-07T09:53:16.503Z,47.6
2018-01-07T09:54:18.401Z,48.4
2018-01-07T09:55:19.723Z,48.3
2018-01-07T09:56:21.358Z,48.3
2018-01-07T09:57:22.981Z,47.7
2018-01-07T09:58:24.601Z,47.6
2018-01-07T09:59:25.944Z,48.2
2018-01-07T10:00:27.563Z,47.7
2018-01-07T10:01:28.609Z,48.3
2018-01-07T10:02:29.949Z,48
2018-01-07T10:03:31.845Z,47.8
2018-01-07T10:04:33.185Z,48
2018-01-07T10:05:35.083Z,47.9
2018-01-07T10:06:35.857Z,47.7
2018-01-07T10:07:37.750Z,47.7
2018-01-07T10:08:39.370Z,47.8
2018-01-07T10:09:40.969Z,47.9
2018-01-07T10:10:42.563Z,47.8
2018-01-07T10:11:43.608Z,47.7
2018-01-07T10:12:45.502Z,47.7
2018-01-07T10:13:47.105Z,47.8
2018-01-07T10:14:48.725Z,47.8
2018-01-07T10:15:50.624Z,47.7
2018-01-07T10:16:52.249Z,47.6
2018-01-07T10:17:53.591Z,47.8
2018-01-07T10:18:55.190Z,47.6
2018-01-07T10:19:56.812Z,47.7
2018-01-07T10:20:58.152Z,47.7
2018-01-07T10:22:00.052Z,47.7
2018-01-07T10:23:01.371Z,47.9
2018-01-07T10:24:02.852Z,47.7
2018-01-07T10:25:04.749Z,47.7
2018-01-07T10:26:06.368Z,47.8
2018-01-07T10:27:07.974Z,48
2018-01-07T10:28:09.869Z,47.9
2018-01-07T10:29:11.488Z,47.7
2018-01-07T10:30:13.386Z,48
2018-01-07T10:31:15.289Z,47.7
2018-01-07T10:32:17.185Z,47.5
2018-01-07T10:33:19.087Z,47.9
2018-01-07T10:34:20.703Z,47.8
2018-01-07T10:35:22.319Z,47.8
2018-01-07T10:36:23.661Z,47.9
2018-01-07T10:37:25.281Z,47.9
2018-01-07T10:38:27.181Z,47.7
2018-01-07T10:39:29.075Z,48
2018-01-07T10:40:30.681Z,48
2018-01-07T10:41:31.722Z,47.8
2018-01-07T10:42:33.342Z,47.8
2018-01-07T10:43:34.961Z,47.5
2018-01-07T10:44:36.577Z,47.8
2018-01-07T10:45:37.903Z,47.8
2018-01-07T10:46:39.518Z,47.4
2018-01-07T10:47:41.418Z,47.8
2018-01-07T10:48:43.054Z,47.9
2018-01-07T10:49:44.950Z,47.7
2018-01-07T10:50:46.275Z,47.8
2018-01-07T10:51:47.595Z,47.8
2018-01-07T10:52:49.491Z,47.5
2018-01-07T10:53:51.388Z,47.8
2018-01-07T10:54:53.009Z,47.7
2018-01-07T10:55:54.328Z,47.8
2018-01-07T10:56:55.670Z,47.8
2018-01-07T10:57:57.267Z,47.7
2018-01-07T10:58:58.885Z,47.7
2018-01-07T11:00:00.204Z,47.7
2018-01-07T11:01:01.531Z,47.8
2018-01-07T11:02:02.874Z,47.7
2018-01-07T11:03:04.767Z,47.8
2018-01-07T11:04:06.388Z,47.5
2018-01-07T11:05:08.005Z,47.8
2018-01-07T11:06:09.353Z,47.8
2018-01-07T11:07:10.970Z,47.7
2018-01-07T11:08:12.869Z,47.7
2018-01-07T11:09:14.187Z,47.7
2018-01-07T11:10:15.529Z,47.5
2018-01-07T11:11:17.126Z,47.8
2018-01-07T11:12:18.469Z,47.7
2018-01-07T11:13:20.090Z,47.8
2018-01-07T11:14:21.709Z,47.8
2018-01-07T11:15:23.330Z,47.5
2018-01-07T11:16:24.953Z,47.6
2018-01-07T11:17:26.549Z,47.9
2018-01-07T11:18:27.889Z,47.8
2018-01-07T11:19:29.784Z,47.5
2018-01-07T11:20:31.204Z,47.8
2018-01-07T11:21:32.803Z,47.4
2018-01-07T11:22:34.182Z,47.7
2018-01-07T11:23:36.078Z,47.4
2018-01-07T11:24:37.975Z,47.7
2018-01-07T11:25:39.418Z,48
2018-01-07T11:26:41.039Z,47.8
2018-01-07T11:27:42.657Z,47.8
2018-01-07T11:28:44.551Z,47.7
2018-01-07T11:29:46.448Z,47.4
2018-01-07T11:30:48.065Z,47.8
2018-01-07T11:31:49.683Z,47.8
2018-01-07T11:32:51.281Z,47.4
2018-01-07T11:33:52.602Z,48
2018-01-07T11:34:54.222Z,47.4
2018-01-07T11:35:55.563Z,48
2018-01-07T11:36:57.185Z,47.7
2018-01-07T11:37:58.804Z,47.6
2018-01-07T11:39:00.404Z,47.7
2018-01-07T11:40:02.023Z,47.7
2018-01-07T11:41:03.344Z,47.7
2018-01-07T11:42:04.688Z,47.8
2018-01-07T11:43:06.031Z,47.8
2018-01-07T11:44:07.933Z,47.6
2018-01-07T11:45:09.828Z,47.7
2018-01-07T11:46:11.148Z,47.7
2018-01-07T11:47:13.046Z,47.6
2018-01-07T11:48:14.951Z,47.7
2018-01-07T11:49:16.268Z,47.7
2018-01-07T11:50:18.162Z,47.6
2018-01-07T11:51:19.772Z,47.4
2018-01-07T11:52:21.370Z,47.7
2018-01-07T11:53:23.416Z,47.8
2018-01-07T11:54:24.858Z,47.7
2018-01-07T11:55:26.200Z,47.8
2018-01-07T11:56:27.543Z,47.8
2018-01-07T11:57:28.883Z,47.8
2018-01-07T11:58:30.243Z,47.8
2018-01-07T11:59:31.588Z,47.6
2018-01-07T12:00:32.933Z,47.7
2018-01-07T12:01:34.533Z,47.8
2018-01-07T12:02:36.157Z,47.1
2018-01-07T12:03:37.471Z,47.7
2018-01-07T12:04:38.819Z,47.3
2018-01-07T12:05:40.435Z,47.7
2018-01-07T12:06:41.755Z,47.2
2018-01-07T12:07:43.654Z,47.7
2018-01-07T12:08:45.250Z,47.8
2018-01-07T12:09:46.298Z,47.6
2018-01-07T12:10:47.929Z,47.4
2018-01-07T12:11:49.817Z,47.7
2018-01-07T12:12:51.717Z,47.2
2018-01-07T12:13:53.613Z,47.8
2018-01-07T12:14:55.216Z,47.2
2018-01-07T12:15:57.113Z,47.9
2018-01-07T12:16:58.792Z,47.6
2018-01-07T12:18:00.709Z,47.8
2018-01-07T12:19:02.330Z,47.8
2018-01-07T12:20:03.946Z,47.7
2018-01-07T12:21:05.566Z,47.8
2018-01-07T12:22:07.240Z,47.7
2018-01-07T12:23:08.304Z,47.3
2018-01-07T12:24:10.199Z,47.7
2018-01-07T12:25:11.798Z,47.6
2018-01-07T12:26:13.396Z,47.7
2018-01-07T12:27:15.347Z,47.6
2018-01-07T12:28:16.967Z,47.7
2018-01-07T12:29:18.588Z,47.5
2018-01-07T12:30:20.484Z,47.6
2018-01-07T12:31:22.078Z,47.3
2018-01-07T12:32:23.975Z,47.4
2018-01-07T12:33:25.872Z,47.4
2018-01-07T12:34:27.494Z,47.6
2018-01-07T12:35:29.397Z,47.5
2018-01-07T12:36:30.992Z,47.4
2018-01-07T12:37:32.885Z,47.4
2018-01-07T12:38:34.502Z,47.4
2018-01-07T12:39:36.110Z,47.5
2018-01-07T12:40:37.159Z,47.3
2018-01-07T12:41:38.194Z,47.4
2018-01-07T12:42:39.819Z,47.5
2018-01-07T12:43:41.419Z,47.6
2018-01-07T12:44:43.039Z,47.3
2018-01-07T12:45:44.661Z,47.4
2018-01-07T12:46:45.978Z,47.4
2018-01-07T12:47:47.597Z,47.4
2018-01-07T12:48:49.493Z,47.4
2018-01-07T12:49:51.401Z,47.5
2018-01-07T12:50:53.011Z,47.5
2018-01-07T12:51:54.631Z,47.3
2018-01-07T12:52:56.249Z,47.5
2018-01-07T12:53:57.872Z,47.4
2018-01-07T12:54:59.772Z,47.4
2018-01-07T12:56:01.114Z,47.4
2018-01-07T12:57:02.730Z,47.4
2018-01-07T12:58:04.353Z,47.6
2018-01-07T12:59:05.676Z,47.5
2018-01-07T13:00:06.718Z,47.3
2018-01-07T13:01:08.337Z,47.2
2018-01-07T13:02:10.230Z,47.4
2018-01-07T13:03:11.830Z,47.2
2018-01-07T13:04:12.874Z,47.3
2018-01-07T13:05:14.772Z,47.2
2018-01-07T13:06:16.372Z,47.1
2018-01-07T13:07:17.713Z,47.2
2018-01-07T13:08:19.609Z,47.3
2018-01-07T13:09:21.507Z,47.1
2018-01-07T13:10:23.402Z,47.1
2018-01-07T13:11:25.025Z,47.1
2018-01-07T13:12:26.665Z,47.1
2018-01-07T13:13:28.562Z,47.1
2018-01-07T13:14:30.458Z,47.1
2018-01-07T13:15:31.798Z,47.1
2018-01-07T13:16:33.123Z,46.8
2018-01-07T13:17:35.021Z,47.2
2018-01-07T13:18:36.638Z,47.1
2018-01-07T13:19:37.981Z,46.9
2018-01-07T13:20:39.876Z,46.9
2018-01-07T13:21:41.774Z,46.9
2018-01-07T13:22:43.400Z,47.1
2018-01-07T13:23:44.737Z,47
2018-01-07T13:24:46.653Z,47.1
2018-01-07T13:25:48.271Z,47.3
2018-01-07T13:26:49.891Z,47.1
2018-01-07T13:27:51.513Z,47
2018-01-07T13:28:53.131Z,47.1
2018-01-07T13:29:54.753Z,47
2018-01-07T13:30:56.375Z,47.3
2018-01-07T13:31:58.271Z,47.2
2018-01-07T13:33:00.166Z,46.9
2018-01-07T13:34:01.787Z,46.7
2018-01-07T13:35:03.410Z,47.2
2018-01-07T13:36:04.758Z,47
2018-01-07T13:37:06.349Z,47.2
2018-01-07T13:38:08.248Z,47.4
2018-01-07T13:39:09.847Z,47.1
2018-01-07T13:40:11.746Z,46.6
2018-01-07T13:41:13.365Z,46.8
2018-01-07T13:42:14.986Z,47.2
2018-01-07T13:43:16.582Z,47.2
2018-01-07T13:44:18.197Z,47.1
2018-01-07T13:45:19.818Z,46.8